createdAt,value
2019-05-12T00:00:01.072Z,6.3
2019-05-12T00:05:01.198Z,6.0
2019-05-12T00:10:01.035Z,5.8
2019-05-12T00:15:01.066Z,5.8
2019-05-12T00:25:01.137Z,5.4
2019-05-12T00:30:01.074Z,6.0
2019-05-12T00:40:01.139Z,5.8
2019-05-12T00:45:01.070Z,6.2
2019-05-12T00:55:01.160Z,5.6
2019-05-12T01:00:01.645Z,5.0
2019-05-12T01:05:01.223Z,5.2
2019-05-12T01:10:03.133Z,5.0
2019-05-12T01:15:01.078Z,5.2
2019-05-12T01:25:01.149Z,5.4
2019-05-12T01:30:01.517Z,5.6
2019-05-12T01:35:01.221Z,5.7
2019-05-12T01:40:01.091Z,5.6
2019-05-12T01:45:01.178Z,5.5
2019-05-12T01:50:01.103Z,5.2
2019-05-12T01:55:01.168Z,4.7
2019-05-12T02:00:01.069Z,4.4
2019-05-12T02:05:01.227Z,4.7
2019-05-12T02:10:01.104Z,4.6
2019-05-12T02:15:01.169Z,4.5
2019-05-12T02:20:01.110Z,4.6
2019-05-12T02:25:01.177Z,4.4
2019-05-12T02:30:01.114Z,3.9
2019-05-12T02:40:04.428Z,4.4
2019-05-12T02:45:01.194Z,4.7
2019-05-12T02:50:01.091Z,5.4
2019-05-12T02:55:05.573Z,6.1
2019-05-12T03:00:01.138Z,6.3
2019-05-12T03:05:01.253Z,6.4
2019-05-12T03:15:01.242Z,6.0
2019-05-12T03:20:06.148Z,5.7
2019-05-12T03:25:11.135Z,5.8
2019-05-12T03:30:11.189Z,5.5
2019-05-12T03:35:08.596Z,5.6
2019-05-12T03:40:06.124Z,5.3
2019-05-12T03:45:06.194Z,5.1
2019-05-12T03:50:04.220Z,5.2
2019-05-12T03:55:01.201Z,5.9
2019-05-12T04:00:06.124Z,6.0
2019-05-12T04:05:04.742Z,5.8
2019-05-12T04:10:01.153Z,5.6
2019-05-12T04:15:04.691Z,5.8
2019-05-12T04:20:04.305Z,5.5
2019-05-12T04:25:01.220Z,5.2
2019-05-12T04:30:01.152Z,5.6
2019-05-12T04:35:04.430Z,5.7
2019-05-12T04:40:01.138Z,5.3
2019-05-12T04:45:04.119Z,4.9
2019-05-12T04:50:01.114Z,4.8
2019-05-12T05:00:04.703Z,4.6
2019-05-12T05:05:01.245Z,5.4
2019-05-12T05:10:04.358Z,5.9
2019-05-12T05:15:01.194Z,6.0
2019-05-12T05:20:01.120Z,6.1
2019-05-12T05:31:03.280Z,5.7
2019-05-12T05:41:05.694Z,5.6
2019-05-12T05:46:05.431Z,6.0
2019-05-12T05:51:05.523Z,6.2
2019-05-12T05:56:01.185Z,6.1
2019-05-12T06:01:03.610Z,6.3
2019-05-12T06:06:06.136Z,6.1
2019-05-12T06:11:01.123Z,5.4
2019-05-12T06:21:03.215Z,5.2
2019-05-12T06:27:13.848Z,4.8
2019-05-12T06:32:06.045Z,5.0
2019-05-12T06:37:02.950Z,5.4
2019-05-12T06:47:06.881Z,4.9
2019-05-12T06:52:03.023Z,4.8
2019-05-12T06:57:17.393Z,5.0
2019-05-12T07:02:03.222Z,4.8
2019-05-12T07:12:03.572Z,5.1
2019-05-12T07:17:02.684Z,5.2
2019-05-12T07:27:03.795Z,4.8
2019-05-12T07:32:01.122Z,4.9
2019-05-12T07:37:01.121Z,5.9
2019-05-12T07:42:03.454Z,6.1
2019-05-12T07:47:03.370Z,6.0
2019-05-12T07:52:03.400Z,6.7
2019-05-12T07:57:03.354Z,6.2
2019-05-12T08:02:03.724Z,5.4
2019-05-12T08:07:01.118Z,4.5
2019-05-12T08:12:01.118Z,4.0
2019-05-12T08:17:10.086Z,3.6
2019-05-12T08:22:01.123Z,3.8
2019-05-12T08:27:03.743Z,3.1
2019-05-12T08:32:01.106Z,3.3
2019-05-12T08:37:01.239Z,3.5
2019-05-12T08:42:01.105Z,3.4
2019-05-12T08:47:03.727Z,3.5
2019-05-12T08:52:03.295Z,3.6
2019-05-12T08:57:01.793Z,4.1
2019-05-12T09:02:06.706Z,3.9
2019-05-12T09:07:01.088Z,3.7
2019-05-12T09:17:07.304Z,3.9
2019-05-12T09:22:16.105Z,4.2
2019-05-12T09:27:04.863Z,4.4
2019-05-12T09:32:05.187Z,4.6
2019-05-12T09:37:01.822Z,4.4
2019-05-12T09:42:03.532Z,4.2
2019-05-12T09:47:01.205Z,3.4
2019-05-12T10:02:03.522Z,3.4
2019-05-12T10:07:01.119Z,3.6
2019-05-12T10:12:02.454Z,3.9
2019-05-12T10:17:03.422Z,3.8
2019-05-12T10:22:01.111Z,3.6
2019-05-12T10:27:03.551Z,3.8
2019-05-12T10:32:01.117Z,3.6
2019-05-12T10:37:01.111Z,3.5
2019-05-12T10:42:01.119Z,3.8
2019-05-12T10:47:01.172Z,4.0
2019-05-12T10:57:01.108Z,4.6
2019-05-12T11:02:11.121Z,4.3
2019-05-12T11:07:01.115Z,4.4
2019-05-12T11:12:11.130Z,4.8
2019-05-12T11:17:01.997Z,4.6
2019-05-12T11:22:03.479Z,4.2
2019-05-12T11:27:01.123Z,4.6
2019-05-12T11:32:01.112Z,4.5
2019-05-12T11:37:03.374Z,4.2
2019-05-12T11:42:01.122Z,4.6
2019-05-12T11:52:07.236Z,4.4
2019-05-12T11:57:01.116Z,4.0
2019-05-12T12:07:01.137Z,4.2
2019-05-12T12:12:03.033Z,4.4
2019-05-12T12:17:01.140Z,4.5
2019-05-12T12:22:01.142Z,5.2
2019-05-12T12:27:01.267Z,5.4
2019-05-12T12:32:01.146Z,5.2
2019-05-12T12:37:03.214Z,5.4
2019-05-12T12:42:06.123Z,5.5
2019-05-12T12:47:01.857Z,5.0
2019-05-12T12:52:03.145Z,5.2
2019-05-12T13:02:09.103Z,4.6
2019-05-12T13:07:01.140Z,4.5
2019-05-12T13:12:14.128Z,4.6
2019-05-12T13:17:01.124Z,4.4
2019-05-12T13:22:01.139Z,4.3
2019-05-12T13:27:03.414Z,4.2
2019-05-12T13:32:06.116Z,4.3
2019-05-12T13:37:09.239Z,4.2
2019-05-12T13:47:03.207Z,4.0
2019-05-12T13:58:01.239Z,4.2
2019-05-12T14:03:04.433Z,4.4
2019-05-12T14:08:06.116Z,4.1
2019-05-12T14:13:03.440Z,4.3
2019-05-12T14:23:06.254Z,3.8
2019-05-12T14:38:03.786Z,3.8
2019-05-12T14:43:10.188Z,4.0
2019-05-12T14:53:06.263Z,3.7
2019-05-12T14:58:09.129Z,3.8
2019-05-12T15:03:04.950Z,3.7
2019-05-12T15:08:01.184Z,3.5
2019-05-12T15:13:03.302Z,3.7
2019-05-12T15:19:06.111Z,3.6
2019-05-12T15:24:03.774Z,3.3
2019-05-12T15:29:13.177Z,3.4
2019-05-12T15:34:03.216Z,3.8
2019-05-12T15:44:03.290Z,4.0
2019-05-12T15:49:03.255Z,4.1
2019-05-12T15:55:01.175Z,3.9
2019-05-12T16:00:01.111Z,3.4
2019-05-12T16:10:03.977Z,3.0
2019-05-12T16:15:01.108Z,3.0
2019-05-12T16:20:03.474Z,3.2
2019-05-12T16:30:06.259Z,3.1
2019-05-12T16:35:07.472Z,3.2
2019-05-12T16:40:06.120Z,3.3
2019-05-12T16:45:05.804Z,3.3
2019-05-12T16:50:14.647Z,3.5
2019-05-12T16:55:03.486Z,3.2
2019-05-12T17:00:06.819Z,3.7
2019-05-12T17:05:06.392Z,3.8
2019-05-12T17:10:02.758Z,3.6
2019-05-12T17:15:03.845Z,3.4
2019-05-12T17:25:01.184Z,2.9
2019-05-12T17:30:01.121Z,2.8
2019-05-12T17:35:03.998Z,3.0
2019-05-12T17:40:03.550Z,3.1
2019-05-12T17:46:03.683Z,3.3
2019-05-12T17:51:03.116Z,3.5
2019-05-12T18:06:01.111Z,3.2
2019-05-12T18:11:03.519Z,3.0
2019-05-12T18:21:03.347Z,3.1
2019-05-12T18:26:02.901Z,3.0
2019-05-12T18:31:01.109Z,3.3
2019-05-12T18:36:01.107Z,3.7
2019-05-12T18:41:03.353Z,3.4
2019-05-12T18:46:08.996Z,3.2
2019-05-12T18:51:02.724Z,3.3
2019-05-12T18:56:01.117Z,3.2
2019-05-12T19:01:02.877Z,3.4
2019-05-12T19:06:03.294Z,3.6
2019-05-12T19:11:18.754Z,3.4
2019-05-12T19:16:02.838Z,3.3
2019-05-12T19:21:01.108Z,3.9
2019-05-12T19:26:01.112Z,3.8
2019-05-12T19:36:07.925Z,4.4
2019-05-12T19:41:01.118Z,4.3
2019-05-12T19:46:03.296Z,4.4
2019-05-12T19:51:16.760Z,4.7
2019-05-12T19:56:03.595Z,5.2
2019-05-12T20:01:03.486Z,4.8
2019-05-12T20:06:01.170Z,5.3
2019-05-12T20:21:01.104Z,5.0
2019-05-12T20:26:06.250Z,4.8
2019-05-12T20:31:02.818Z,4.9
2019-05-12T20:36:06.180Z,4.3
2019-05-12T20:41:01.139Z,4.4
2019-05-12T20:46:03.593Z,4.3
2019-05-12T20:51:03.453Z,4.9
2019-05-12T21:01:02.719Z,5.1
2019-05-12T21:06:01.670Z,5.2
2019-05-12T21:12:01.101Z,5.6
2019-05-12T21:17:02.952Z,5.2
2019-05-12T21:22:03.291Z,5.0
2019-05-12T21:32:02.766Z,4.8
2019-05-12T21:47:07.333Z,4.8
2019-05-12T21:52:04.036Z,5.0
2019-05-12T21:57:01.098Z,5.5
2019-05-12T22:02:01.099Z,5.7
2019-05-12T22:07:01.243Z,5.9
2019-05-12T22:12:03.699Z,5.7
2019-05-12T22:17:01.185Z,5.4
2019-05-12T22:22:01.146Z,5.1
2019-05-12T22:27:02.577Z,4.9
2019-05-12T22:32:01.121Z,4.8
2019-05-12T22:37:06.183Z,5.2
2019-05-12T22:42:03.389Z,5.1
2019-05-12T22:47:04.029Z,5.3
2019-05-12T22:52:02.891Z,5.8
2019-05-12T22:57:06.122Z,5.9
2019-05-12T23:07:01.278Z,6.2
2019-05-12T23:12:04.160Z,5.6
2019-05-12T23:17:05.552Z,5.1
2019-05-12T23:22:03.341Z,4.9
2019-05-12T23:27:01.213Z,4.8
2019-05-12T23:32:07.068Z,4.6
2019-05-12T23:37:01.138Z,4.5
2019-05-12T23:42:01.145Z,5.0
2019-05-12T23:47:01.277Z,5.2
2019-05-12T23:52:06.120Z,5.0
2019-05-12T23:57:06.122Z,4.9
